Skip Navigation LinksHome page > Tools > METAR decoder Skip Navigation Links

METAR decoder



Chicago O'Hare Intl, Chicago

For information only: do not use for flight planning or navigation.
Latest weather
Observation time Friday, March 23, 2018 1:51 AM CDT
Local time Friday, March 23, 2018 2:19 AM CDT
Flight conditions Visual Meteorological Conditions
Wind speed calm
Visibility 10 mi.
Sky condition
Ceiling unlimited
Sky clear
Temperature 31°F
Dewpoint 22°F
Altimeter 30.34 in.Hg
Derived measurements
Relative humidity 69%
Wind chill 31°F
Density altitude -1659 ft.
Sea-level pressure 30.35 in.Hg
Automated weather observing station with precipitation discriminator.
METAR KORD 230651Z 00000KT 10SM CLR M01/M06 A3034 RMK AO2 SLP279 T10061056

InnerDrive.Weather 4.0.6615.0 Release CLR 4.0.30319.42000
Copyright ©2018 Inner Drive Technology. All rights reserved. Portions Copyright ©1986-2018 David Braverman.

Find weather

Site navigation

Skip Navigation Links

Place info

Page info

PayPal - The safer, easier way to pay online!

Return home.

Copyright ©2018 Inner Drive Technology. Purveyors of fine, hand-crafted computer software. Page printed 2018-03-23T07:19:00 UTC.